createdAt,value
2016-08-19T03:00:35.675Z,1012.08
2016-08-19T03:01:01.224Z,1012.1
2016-08-19T03:01:26.915Z,1012.1
2016-08-19T03:01:52.476Z,1012.07
2016-08-19T03:02:18.074Z,1012.08
2016-08-19T03:02:43.723Z,1012.07
2016-08-19T03:03:09.293Z,1012.08
2016-08-19T03:03:34.866Z,1012.07
2016-08-19T03:04:00.485Z,1012.06
2016-08-19T03:04:26.055Z,1012.05
2016-08-19T03:04:51.616Z,1012.02
2016-08-19T03:05:17.196Z,1012.06
2016-08-19T03:05:42.781Z,1012.06
2016-08-19T03:06:08.352Z,1012.05
2016-08-19T03:06:33.925Z,1012.06
2016-08-19T03:06:59.553Z,1012.06
2016-08-19T03:07:25.075Z,1012.03
2016-08-19T03:07:50.696Z,1012.04
2016-08-19T03:08:16.268Z,1012.04
2016-08-19T03:08:41.822Z,1012.02
2016-08-19T03:09:07.463Z,1012
2016-08-19T03:09:33.040Z,1012.01
2016-08-19T03:09:58.601Z,1012.03
2016-08-19T03:10:24.235Z,1012.03
2016-08-19T03:10:49.796Z,1012.03
2016-08-19T03:11:15.359Z,1012.05
2016-08-19T03:11:40.938Z,1012.04
2016-08-19T03:12:06.644Z,1012.01
2016-08-19T03:12:32.215Z,1011.99
2016-08-19T03:12:57.782Z,1012.01
2016-08-19T03:13:23.346Z,1011.99
2016-08-19T03:13:48.910Z,1012.02
2016-08-19T03:14:14.486Z,1011.98
2016-08-19T03:14:40.061Z,1011.98
2016-08-19T03:15:05.632Z,1011.99
2016-08-19T03:15:31.214Z,1011.98
2016-08-19T03:15:56.806Z,1011.97
2016-08-19T03:16:22.371Z,1012.02
2016-08-19T03:16:48.012Z,1012.01
2016-08-19T03:17:13.577Z,1011.98
2016-08-19T03:17:39.142Z,1011.97
2016-08-19T03:18:04.726Z,1012.01
2016-08-19T03:18:30.312Z,1011.99
2016-08-19T03:18:55.893Z,1011.98
2016-08-19T03:19:21.469Z,1011.94
2016-08-19T03:19:47.041Z,1011.95
2016-08-19T03:20:12.617Z,1011.94
2016-08-19T03:20:38.178Z,1011.96
2016-08-19T03:21:03.735Z,1011.94
2016-08-19T03:21:29.290Z,1011.94
2016-08-19T03:21:54.854Z,1011.93
2016-08-19T03:22:20.400Z,1011.95
2016-08-19T03:22:45.981Z,1011.9
2016-08-19T03:23:11.528Z,1011.93
2016-08-19T03:23:37.103Z,1011.95
2016-08-19T03:24:02.678Z,1011.95
2016-08-19T03:24:28.258Z,1011.92
2016-08-19T03:24:53.807Z,1011.94
2016-08-19T03:25:19.376Z,1011.93
2016-08-19T03:25:44.937Z,1011.94
2016-08-19T03:26:10.515Z,1011.94
2016-08-19T03:26:36.135Z,1011.94
2016-08-19T03:27:01.706Z,1011.96
2016-08-19T03:27:27.325Z,1011.97
2016-08-19T03:27:52.902Z,1011.91
2016-08-19T03:28:18.476Z,1011.98
2016-08-19T03:29:16.532Z,1012
2016-08-19T03:29:42.105Z,1012.01
2016-08-19T03:30:07.658Z,1012
2016-08-19T03:30:33.210Z,1012
2016-08-19T03:30:58.771Z,1012
2016-08-19T03:31:24.321Z,1011.96
2016-08-19T03:31:49.882Z,1011.98
2016-08-19T03:32:15.424Z,1011.96
2016-08-19T03:32:41.033Z,1011.96
2016-08-19T03:33:06.586Z,1011.96
2016-08-19T03:33:32.131Z,1012.03
2016-08-19T03:33:57.698Z,1011.97
2016-08-19T03:34:23.250Z,1011.99
2016-08-19T03:34:48.860Z,1011.99
2016-08-19T03:35:14.405Z,1011.97
2016-08-19T03:35:39.971Z,1011.99
2016-08-19T03:36:05.530Z,1012
2016-08-19T03:36:31.166Z,1012
2016-08-19T03:36:56.714Z,1011.98
2016-08-19T03:37:22.271Z,1012
2016-08-19T03:37:47.839Z,1011.97
2016-08-19T03:38:13.418Z,1011.98
2016-08-19T03:38:38.981Z,1012
2016-08-19T03:39:04.642Z,1011.95
2016-08-19T03:40:18.005Z,1011.96
2016-08-19T03:40:43.653Z,1011.99
2016-08-19T03:41:09.282Z,1011.99
2016-08-19T03:41:34.844Z,1011.97
2016-08-19T03:42:00.414Z,1011.96
2016-08-19T03:42:26.121Z,1011.93
2016-08-19T03:42:51.691Z,1011.93
2016-08-19T03:43:17.274Z,1011.95
2016-08-19T03:43:42.845Z,1011.92
2016-08-19T03:44:08.424Z,1011.95
2016-08-19T03:45:11.593Z,1011.97
2016-08-19T03:45:37.134Z,1011.89
2016-08-19T03:46:02.724Z,1011.96
2016-08-19T03:46:28.422Z,1011.95
2016-08-19T03:46:54.192Z,1011.98
2016-08-19T03:47:19.758Z,1011.94
2016-08-19T03:47:45.324Z,1011.95
2016-08-19T03:48:10.888Z,1011.95
2016-08-19T03:48:36.491Z,1011.96
2016-08-19T03:49:02.046Z,1011.97
2016-08-19T03:49:27.588Z,1011.9
2016-08-19T03:49:53.166Z,1011.94
2016-08-19T03:50:18.778Z,1011.94
2016-08-19T03:50:44.342Z,1011.96
2016-08-19T03:51:09.921Z,1011.97
2016-08-19T03:51:35.483Z,1011.91
2016-08-19T03:52:01.041Z,1011.97
2016-08-19T03:52:26.620Z,1011.89
2016-08-19T03:52:52.193Z,1011.93
2016-08-19T03:53:17.735Z,1011.96
2016-08-19T03:53:43.299Z,1011.97
2016-08-19T03:54:08.871Z,1011.93
2016-08-19T03:54:34.435Z,1011.9
2016-08-19T03:54:59.998Z,1011.91
2016-08-19T03:55:25.642Z,1011.89
2016-08-19T03:55:51.208Z,1011.93
2016-08-19T03:56:16.773Z,1011.92
2016-08-19T03:56:42.933Z,1011.91
2016-08-19T03:57:08.485Z,1011.94
2016-08-19T03:57:34.047Z,1011.95
2016-08-19T03:57:59.621Z,1011.96
2016-08-19T03:58:25.185Z,1011.96
2016-08-19T03:58:50.771Z,1011.96
2016-08-19T03:59:16.466Z,1011.95
2016-08-19T03:59:42.018Z,1011.98
2016-08-19T04:00:07.583Z,1011.97
2016-08-19T04:01:05.862Z,1011.96
2016-08-19T04:01:31.511Z,1011.97
2016-08-19T04:01:57.127Z,1011.96
2016-08-19T04:02:22.721Z,1011.99
2016-08-19T04:02:48.280Z,1011.98
2016-08-19T04:03:13.838Z,1011.96
2016-08-19T04:03:39.415Z,1011.95
2016-08-19T04:04:04.973Z,1011.99
2016-08-19T04:04:30.594Z,1012.01
2016-08-19T04:04:56.152Z,1012.04
2016-08-19T04:05:21.763Z,1011.99
2016-08-19T04:05:47.304Z,1012.02
2016-08-19T04:06:12.867Z,1012
2016-08-19T04:06:38.438Z,1012.02
2016-08-19T04:07:04.163Z,1012.02
2016-08-19T04:07:29.742Z,1012.04
2016-08-19T04:07:55.315Z,1012.02
2016-08-19T04:08:20.974Z,1012.02
2016-08-19T04:08:46.565Z,1012.09
2016-08-19T04:09:12.108Z,1012.07
2016-08-19T04:09:37.677Z,1012.05
2016-08-19T04:10:03.265Z,1012.06
2016-08-19T04:10:28.897Z,1012.02
2016-08-19T04:10:54.525Z,1012.03
2016-08-19T04:11:20.052Z,1012.06
2016-08-19T04:11:45.588Z,1011.97
2016-08-19T04:12:11.165Z,1012.03
2016-08-19T04:12:36.765Z,1012.01
2016-08-19T04:13:02.327Z,1012.04
2016-08-19T04:13:27.916Z,1012.02
2016-08-19T04:13:53.549Z,1012.03
2016-08-19T04:14:19.105Z,1012.04
2016-08-19T04:14:44.664Z,1012.02
2016-08-19T04:15:10.233Z,1011.99
2016-08-19T04:15:35.799Z,1012.03
2016-08-19T04:16:01.362Z,1012.05
2016-08-19T04:16:26.913Z,1012.05
2016-08-19T04:16:52.481Z,1012.05
2016-08-19T04:17:18.129Z,1012.03
2016-08-19T04:17:43.699Z,1012.04
2016-08-19T04:18:09.272Z,1012.03
2016-08-19T04:18:34.965Z,1012.06
2016-08-19T04:19:00.551Z,1012.04
2016-08-19T04:19:26.133Z,1012.03
2016-08-19T04:19:51.682Z,1012.02
2016-08-19T04:20:17.245Z,1012.07
2016-08-19T04:20:42.816Z,1012.06
2016-08-19T04:21:08.393Z,1012.11
2016-08-19T04:21:33.976Z,1012.08
2016-08-19T04:21:59.549Z,1012.05
2016-08-19T04:22:25.201Z,1012.08
2016-08-19T04:22:50.750Z,1012.11
2016-08-19T04:23:16.316Z,1012.08
2016-08-19T04:23:41.955Z,1012.06
2016-08-19T04:24:07.514Z,1012.09
2016-08-19T04:24:33.087Z,1012.07
2016-08-19T04:24:58.658Z,1012.08
2016-08-19T04:25:24.263Z,1012.07
2016-08-19T04:25:49.834Z,1012.11
2016-08-19T04:26:15.403Z,1012.08
2016-08-19T04:26:40.977Z,1012.08
2016-08-19T04:27:06.546Z,1012.09
2016-08-19T04:27:32.185Z,1012.12
2016-08-19T04:27:57.733Z,1012.11
2016-08-19T04:28:23.325Z,1012.12
2016-08-19T04:28:48.890Z,1012.12
2016-08-19T04:29:14.453Z,1012.1
2016-08-19T04:29:40.020Z,1012.12
2016-08-19T04:30:05.571Z,1012.11
2016-08-19T04:30:31.257Z,1012.12
2016-08-19T04:30:56.822Z,1012.15
2016-08-19T04:31:22.377Z,1012.11
2016-08-19T04:31:47.956Z,1012.15
2016-08-19T04:32:13.519Z,1012.13
2016-08-19T04:32:39.073Z,1012.12
2016-08-19T04:33:04.644Z,1012.1
2016-08-19T04:33:30.220Z,1012.14
2016-08-19T04:33:55.786Z,1012.13
2016-08-19T04:34:21.444Z,1012.11
2016-08-19T04:34:47.015Z,1012.11
2016-08-19T04:35:12.578Z,1012.12
2016-08-19T04:35:38.169Z,1012.15
2016-08-19T04:36:03.734Z,1012.14
2016-08-19T04:36:29.295Z,1012.12
2016-08-19T04:36:54.856Z,1012.13
2016-08-19T04:37:20.420Z,1012.16
2016-08-19T04:37:46.030Z,1012.12
2016-08-19T04:38:11.615Z,1012.15
2016-08-19T04:38:37.177Z,1012.15
2016-08-19T04:39:02.737Z,1012.18
2016-08-19T04:39:28.285Z,1012.17
2016-08-19T04:39:53.848Z,1012.19
2016-08-19T04:40:19.420Z,1012.17
2016-08-19T04:40:44.977Z,1012.19
2016-08-19T04:41:10.543Z,1012.21
2016-08-19T04:41:36.132Z,1012.17
2016-08-19T04:42:01.788Z,1012.19
2016-08-19T04:42:27.405Z,1012.22
2016-08-19T04:42:52.954Z,1012.21
2016-08-19T04:43:18.525Z,1012.2
2016-08-19T04:43:44.083Z,1012.2
2016-08-19T04:44:09.754Z,1012.2
2016-08-19T04:44:35.351Z,1012.2
2016-08-19T04:45:00.934Z,1012.19
2016-08-19T04:46:19.474Z,1012.24
2016-08-19T04:46:45.034Z,1012.2
2016-08-19T04:47:10.593Z,1012.21
2016-08-19T04:47:36.165Z,1012.18
2016-08-19T04:48:01.736Z,1012.17
2016-08-19T04:48:27.302Z,1012.18
2016-08-19T04:48:52.845Z,1012.21
2016-08-19T04:49:18.421Z,1012.21
2016-08-19T04:49:43.998Z,1012.18
2016-08-19T04:50:09.557Z,1012.2
2016-08-19T04:50:35.125Z,1012.2
2016-08-19T04:51:00.714Z,1012.24
2016-08-19T04:51:26.252Z,1012.24
2016-08-19T04:51:51.816Z,1012.29
2016-08-19T04:52:17.385Z,1012.32
2016-08-19T04:52:42.944Z,1012.27
2016-08-19T04:53:08.510Z,1012.32
2016-08-19T04:53:34.066Z,1012.33
2016-08-19T04:53:59.625Z,1012.34
2016-08-19T04:54:25.173Z,1012.31
2016-08-19T04:54:50.750Z,1012.27
2016-08-19T04:55:16.335Z,1012.29
2016-08-19T04:55:41.883Z,1012.24
2016-08-19T04:56:07.431Z,1012.31
2016-08-19T04:56:32.972Z,1012.23
2016-08-19T04:56:58.517Z,1012.24
2016-08-19T04:57:24.068Z,1012.27
2016-08-19T04:57:49.762Z,1012.24
2016-08-19T04:58:15.335Z,1012.27
2016-08-19T04:58:40.878Z,1012.27
2016-08-19T04:59:07.168Z,1012.25
2016-08-19T04:59:32.751Z,1012.29
2016-08-19T04:59:58.309Z,1012.3
2016-08-19T05:00:23.845Z,1012.29
2016-08-19T05:00:49.415Z,1012.27
2016-08-19T05:01:14.962Z,1012.25
2016-08-19T05:01:40.603Z,1012.29
2016-08-19T05:02:06.184Z,1012.29
2016-08-19T05:02:31.783Z,1012.33
2016-08-19T05:02:57.351Z,1012.29
2016-08-19T05:03:22.913Z,1012.3
2016-08-19T05:03:48.457Z,1012.3
2016-08-19T05:04:14.037Z,1012.3
2016-08-19T05:04:39.606Z,1012.26
2016-08-19T05:05:05.171Z,1012.28
2016-08-19T05:05:30.712Z,1012.26
2016-08-19T05:05:56.258Z,1012.29
2016-08-19T05:06:21.831Z,1012.28
2016-08-19T05:06:47.370Z,1012.28
2016-08-19T05:07:13.068Z,1012.27
2016-08-19T05:07:38.666Z,1012.29
2016-08-19T05:08:04.232Z,1012.27
2016-08-19T05:08:29.787Z,1012.31
2016-08-19T05:08:55.359Z,1012.36
2016-08-19T05:09:20.944Z,1012.28
2016-08-19T05:09:46.505Z,1012.28
2016-08-19T05:10:12.212Z,1012.3
2016-08-19T05:10:37.784Z,1012.33
2016-08-19T05:11:03.337Z,1012.31
2016-08-19T05:11:28.962Z,1012.27
2016-08-19T05:11:54.601Z,1012.25
2016-08-19T05:12:20.175Z,1012.18
2016-08-19T05:12:45.734Z,1012.21
2016-08-19T05:13:11.495Z,1012.2
2016-08-19T05:13:37.003Z,1012.21
2016-08-19T05:14:02.573Z,1012.2
2016-08-19T05:14:28.142Z,1012.2
2016-08-19T05:14:53.702Z,1012.15
2016-08-19T05:15:19.264Z,1012.19
2016-08-19T05:15:44.825Z,1012.18
2016-08-19T05:16:10.382Z,1012.18
2016-08-19T05:16:36.055Z,1012.17
2016-08-19T05:17:44.400Z,1012.18
2016-08-19T05:18:09.977Z,1012.16
2016-08-19T05:19:08.066Z,1012.13
2016-08-19T05:19:33.636Z,1012.14
2016-08-19T05:19:59.228Z,1012.14
2016-08-19T05:20:24.824Z,1012.2
2016-08-19T05:20:50.381Z,1012.19
2016-08-19T05:21:15.966Z,1012.17
2016-08-19T05:21:41.542Z,1012.19
2016-08-19T05:22:07.123Z,1012.18
2016-08-19T05:22:32.713Z,1012.18
2016-08-19T05:22:58.271Z,1012.22
2016-08-19T05:23:23.858Z,1012.21
2016-08-19T05:23:49.443Z,1012.2
2016-08-19T05:24:15.010Z,1012.22
2016-08-19T05:24:40.561Z,1012.23
2016-08-19T05:25:06.099Z,1012.21
2016-08-19T05:25:31.660Z,1012.22
2016-08-19T05:25:57.232Z,1012.2
2016-08-19T05:26:22.805Z,1012.22
2016-08-19T05:27:20.872Z,1012.21
2016-08-19T05:27:46.503Z,1012.22
2016-08-19T05:28:12.068Z,1012.23
2016-08-19T05:28:37.638Z,1012.22
2016-08-19T05:29:03.347Z,1012.22
2016-08-19T05:29:28.919Z,1012.26
2016-08-19T05:29:54.457Z,1012.27
2016-08-19T05:30:20.047Z,1012.23
2016-08-19T05:30:45.614Z,1012.25
2016-08-19T05:31:11.200Z,1012.27
2016-08-19T05:32:19.527Z,1012.23
2016-08-19T05:32:45.101Z,1012.27
2016-08-19T05:33:10.758Z,1012.29
2016-08-19T05:33:36.320Z,1012.26
2016-08-19T05:34:01.876Z,1012.31
2016-08-19T05:34:27.456Z,1012.33
2016-08-19T05:34:53.014Z,1012.28
2016-08-19T05:35:18.557Z,1012.34
2016-08-19T05:35:44.117Z,1012.3
2016-08-19T05:36:09.678Z,1012.35
2016-08-19T05:36:35.454Z,1012.33
2016-08-19T05:37:01.016Z,1012.36
2016-08-19T05:37:26.569Z,1012.37
2016-08-19T05:38:24.623Z,1012.36
2016-08-19T05:38:50.198Z,1012.38
2016-08-19T05:39:17.827Z,1012.35
2016-08-19T05:41:23.229Z,1012.42
2016-08-19T05:41:48.782Z,1012.37
2016-08-19T05:42:14.372Z,1012.38
2016-08-19T05:42:39.964Z,1012.35
2016-08-19T05:43:05.537Z,1012.38
2016-08-19T05:43:31.070Z,1012.38
2016-08-19T05:43:56.619Z,1012.37
2016-08-19T05:44:22.271Z,1012.42
2016-08-19T05:44:47.840Z,1012.4
2016-08-19T05:45:13.386Z,1012.43
2016-08-19T05:45:38.946Z,1012.43
2016-08-19T05:46:04.532Z,1012.42
2016-08-19T05:46:30.083Z,1012.41
2016-08-19T05:46:55.659Z,1012.43
2016-08-19T05:47:21.219Z,1012.46
2016-08-19T05:47:46.783Z,1012.42
2016-08-19T05:48:12.451Z,1012.43
2016-08-19T05:48:38.122Z,1012.44
2016-08-19T05:49:03.690Z,1012.44
2016-08-19T05:49:29.358Z,1012.44
2016-08-19T05:49:54.907Z,1012.45
2016-08-19T05:50:20.465Z,1012.44
2016-08-19T05:50:46.027Z,1012.44
2016-08-19T05:51:11.588Z,1012.48
2016-08-19T05:51:37.130Z,1012.49
2016-08-19T05:52:02.700Z,1012.48
2016-08-19T05:52:28.341Z,1012.48
2016-08-19T05:52:53.878Z,1012.44
2016-08-19T05:53:19.436Z,1012.47
2016-08-19T05:53:44.979Z,1012.47
2016-08-19T05:54:10.529Z,1012.42
2016-08-19T05:54:36.078Z,1012.43
2016-08-19T05:55:01.627Z,1012.4
2016-08-19T05:55:27.195Z,1012.41
2016-08-19T05:55:52.755Z,1012.39
2016-08-19T05:56:18.307Z,1012.39
2016-08-19T05:56:43.879Z,1012.41
2016-08-19T05:57:09.446Z,1012.37
2016-08-19T05:57:35.003Z,1012.34
2016-08-19T05:58:00.576Z,1012.34
2016-08-19T05:58:26.149Z,1012.36
2016-08-19T05:58:51.778Z,1012.35
2016-08-19T05:59:17.356Z,1012.35
2016-08-19T05:59:42.909Z,1012.34
2016-08-19T06:00:08.457Z,1012.33
2016-08-19T06:01:11.672Z,1012.39
2016-08-19T06:01:37.227Z,1012.4
2016-08-19T06:02:02.829Z,1012.39
2016-08-19T06:02:28.404Z,1012.35
2016-08-19T06:02:53.953Z,1012.39
2016-08-19T06:03:19.695Z,1012.4
2016-08-19T06:03:45.230Z,1012.4
2016-08-19T06:04:10.805Z,1012.39
2016-08-19T06:04:36.584Z,1012.41
2016-08-19T06:05:02.149Z,1012.44
2016-08-19T06:05:28.098Z,1012.43
2016-08-19T06:05:53.744Z,1012.46
2016-08-19T06:06:19.304Z,1012.45
2016-08-19T06:06:44.852Z,1012.46
2016-08-19T06:07:10.416Z,1012.42
2016-08-19T06:07:36.013Z,1012.45
2016-08-19T06:08:01.662Z,1012.45
2016-08-19T06:08:27.244Z,1012.43
2016-08-19T06:08:52.789Z,1012.39
2016-08-19T06:09:18.352Z,1012.41
2016-08-19T06:09:43.894Z,1012.44
2016-08-19T06:10:09.476Z,1012.42
2016-08-19T06:10:35.035Z,1012.42
2016-08-19T06:11:00.613Z,1012.4
2016-08-19T06:11:26.199Z,1012.44
2016-08-19T06:11:51.754Z,1012.42
2016-08-19T06:12:17.315Z,1012.42
2016-08-19T06:12:42.966Z,1012.45
2016-08-19T06:13:08.885Z,1012.44
2016-08-19T06:13:34.574Z,1012.46
2016-08-19T06:14:00.140Z,1012.42
2016-08-19T06:14:25.865Z,1012.43
2016-08-19T06:14:51.418Z,1012.47
2016-08-19T06:15:17.091Z,1012.48
2016-08-19T06:15:42.677Z,1012.48
2016-08-19T06:16:08.241Z,1012.45
2016-08-19T06:16:33.815Z,1012.47
2016-08-19T06:16:59.472Z,1012.49
2016-08-19T06:17:25.028Z,1012.49
2016-08-19T06:17:50.601Z,1012.47
2016-08-19T06:18:16.169Z,1012.52
2016-08-19T06:18:41.855Z,1012.48
2016-08-19T06:19:07.423Z,1012.52
2016-08-19T06:20:26.013Z,1012.45
2016-08-19T06:20:51.614Z,1012.49
2016-08-19T06:21:17.186Z,1012.46
2016-08-19T06:21:42.748Z,1012.46
2016-08-19T06:22:08.440Z,1012.44
2016-08-19T06:22:34.031Z,1012.44
2016-08-19T06:22:59.599Z,1012.43
2016-08-19T06:23:25.246Z,1012.45
2016-08-19T06:23:50.903Z,1012.46
2016-08-19T06:24:16.443Z,1012.45
2016-08-19T06:24:42.033Z,1012.46
2016-08-19T06:25:07.644Z,1012.44
2016-08-19T06:25:33.206Z,1012.46
2016-08-19T06:25:58.808Z,1012.45
2016-08-19T06:26:24.430Z,1012.47
2016-08-19T06:26:49.994Z,1012.5
2016-08-19T06:27:15.560Z,1012.49
2016-08-19T06:27:41.225Z,1012.48
2016-08-19T06:28:06.890Z,1012.48
2016-08-19T06:28:32.505Z,1012.47
2016-08-19T06:28:58.117Z,1012.49
2016-08-19T06:29:23.691Z,1012.52
2016-08-19T06:29:49.254Z,1012.52
2016-08-19T06:30:14.862Z,1012.5
2016-08-19T06:30:40.429Z,1012.5
2016-08-19T06:31:06.019Z,1012.5
2016-08-19T06:31:31.582Z,1012.5
2016-08-19T06:31:57.245Z,1012.53
2016-08-19T06:32:22.809Z,1012.5
2016-08-19T06:32:48.388Z,1012.53
2016-08-19T06:33:13.973Z,1012.52
2016-08-19T06:33:39.615Z,1012.51
2016-08-19T06:34:05.235Z,1012.49
2016-08-19T06:34:31.430Z,1012.54
2016-08-19T06:34:56.387Z,1012.54
2016-08-19T06:35:21.947Z,1012.54
2016-08-19T06:35:47.532Z,1012.51
2016-08-19T06:36:13.211Z,1012.5
2016-08-19T06:36:38.767Z,1012.51
2016-08-19T06:37:04.362Z,1012.54
2016-08-19T06:37:29.983Z,1012.55
2016-08-19T06:37:55.544Z,1012.54
2016-08-19T06:38:21.130Z,1012.52
2016-08-19T06:38:46.719Z,1012.53
2016-08-19T06:39:12.270Z,1012.54
2016-08-19T06:39:37.857Z,1012.56
2016-08-19T06:40:03.443Z,1012.55
2016-08-19T06:40:29.005Z,1012.57
2016-08-19T06:40:54.575Z,1012.54
2016-08-19T06:41:20.145Z,1012.53
2016-08-19T06:41:45.731Z,1012.5
2016-08-19T06:42:11.381Z,1012.53
2016-08-19T06:42:37.015Z,1012.52
2016-08-19T06:43:02.643Z,1012.52
2016-08-19T06:43:28.215Z,1012.5
2016-08-19T06:43:53.831Z,1012.51
2016-08-19T06:44:19.413Z,1012.53
2016-08-19T06:44:44.977Z,1012.51
2016-08-19T06:45:10.535Z,1012.46
2016-08-19T06:45:36.115Z,1012.5
2016-08-19T06:46:01.684Z,1012.53
2016-08-19T06:46:27.257Z,1012.49
2016-08-19T06:46:52.832Z,1012.53
2016-08-19T06:47:18.385Z,1012.51
2016-08-19T06:47:43.958Z,1012.5
2016-08-19T06:48:09.536Z,1012.57
2016-08-19T06:48:35.108Z,1012.56
2016-08-19T06:49:00.682Z,1012.57
2016-08-19T06:49:26.334Z,1012.56
2016-08-19T06:49:51.924Z,1012.55
2016-08-19T06:50:17.548Z,1012.58
2016-08-19T06:50:43.224Z,1012.56
2016-08-19T06:51:08.877Z,1012.56
2016-08-19T06:51:34.503Z,1012.54
2016-08-19T06:52:00.187Z,1012.55
2016-08-19T06:52:25.766Z,1012.56
2016-08-19T06:52:51.350Z,1012.58
2016-08-19T06:53:16.918Z,1012.62
2016-08-19T06:54:20.083Z,1012.58
2016-08-19T06:54:45.734Z,1012.58
2016-08-19T06:55:11.289Z,1012.58
2016-08-19T06:55:36.844Z,1012.63
2016-08-19T06:56:02.413Z,1012.58
2016-08-19T06:56:27.979Z,1012.55
2016-08-19T06:56:53.537Z,1012.6
2016-08-19T06:57:19.090Z,1012.52
2016-08-19T06:57:44.635Z,1012.53
2016-08-19T06:58:10.237Z,1012.54
2016-08-19T06:58:35.862Z,1012.54
2016-08-19T06:59:01.412Z,1012.55
2016-08-19T06:59:26.996Z,1012.53
2016-08-19T06:59:52.692Z,1012.5
2016-08-19T07:00:18.259Z,1012.51
2016-08-19T07:00:43.807Z,1012.51
2016-08-19T07:01:09.394Z,1012.49
2016-08-19T07:01:34.971Z,1012.55
2016-08-19T07:02:00.545Z,1012.58
2016-08-19T07:02:26.148Z,1012.57
2016-08-19T07:02:51.790Z,1012.58
2016-08-19T07:03:17.342Z,1012.57
2016-08-19T07:03:42.990Z,1012.57
2016-08-19T07:04:08.729Z,1012.56
2016-08-19T07:04:34.406Z,1012.59
2016-08-19T07:04:59.972Z,1012.58
2016-08-19T07:05:25.551Z,1012.6
2016-08-19T07:05:51.109Z,1012.57
2016-08-19T07:06:16.662Z,1012.55
2016-08-19T07:06:43.105Z,1012.58
2016-08-19T07:07:08.644Z,1012.55
2016-08-19T07:07:34.174Z,1012.57
2016-08-19T07:07:59.733Z,1012.59
2016-08-19T07:08:25.271Z,1012.57
2016-08-19T07:08:50.905Z,1012.59
2016-08-19T07:09:16.454Z,1012.53
2016-08-19T07:09:41.999Z,1012.56
2016-08-19T07:10:07.726Z,1012.59
2016-08-19T07:10:33.306Z,1012.58
2016-08-19T07:10:58.935Z,1012.53
2016-08-19T07:11:24.549Z,1012.6
2016-08-19T07:11:50.116Z,1012.58
2016-08-19T07:12:15.690Z,1012.56
2016-08-19T07:12:41.381Z,1012.52
2016-08-19T07:13:06.929Z,1012.53
2016-08-19T07:13:32.486Z,1012.56
2016-08-19T07:13:58.054Z,1012.54
2016-08-19T07:14:23.634Z,1012.52
2016-08-19T07:14:49.278Z,1012.51
2016-08-19T07:15:14.868Z,1012.54
2016-08-19T07:15:40.466Z,1012.51
2016-08-19T07:16:06.058Z,1012.53
2016-08-19T07:16:31.626Z,1012.49
2016-08-19T07:16:57.206Z,1012.5
2016-08-19T07:17:22.794Z,1012.54
2016-08-19T07:17:48.371Z,1012.53
2016-08-19T07:18:13.936Z,1012.51
2016-08-19T07:18:39.498Z,1012.52
2016-08-19T07:19:05.096Z,1012.53
2016-08-19T07:19:30.650Z,1012.49
2016-08-19T07:19:56.218Z,1012.54
2016-08-19T07:20:21.794Z,1012.53
2016-08-19T07:20:47.373Z,1012.5
2016-08-19T07:21:12.940Z,1012.56
2016-08-19T07:21:38.513Z,1012.52
2016-08-19T07:22:04.087Z,1012.53
2016-08-19T07:22:29.671Z,1012.56
2016-08-19T07:22:55.214Z,1012.54
2016-08-19T07:23:20.778Z,1012.56
2016-08-19T07:23:46.370Z,1012.56
2016-08-19T07:24:11.906Z,1012.57
2016-08-19T07:24:37.476Z,1012.59
2016-08-19T07:25:03.053Z,1012.63
2016-08-19T07:25:28.711Z,1012.61
2016-08-19T07:25:54.285Z,1012.6
2016-08-19T07:26:19.858Z,1012.58
2016-08-19T07:26:45.427Z,1012.54
2016-08-19T07:27:10.976Z,1012.59
2016-08-19T07:27:36.546Z,1012.61
2016-08-19T07:28:02.291Z,1012.61
2016-08-19T07:28:27.871Z,1012.64
2016-08-19T07:28:53.445Z,1012.6
2016-08-19T07:29:19.019Z,1012.62
2016-08-19T07:30:17.365Z,1012.66
2016-08-19T07:30:42.963Z,1012.62
2016-08-19T07:31:08.543Z,1012.6
2016-08-19T07:31:34.112Z,1012.6
2016-08-19T07:31:59.661Z,1012.58
2016-08-19T07:32:25.224Z,1012.58
2016-08-19T07:32:50.784Z,1012.57
2016-08-19T07:33:16.360Z,1012.59
2016-08-19T07:33:41.956Z,1012.6
2016-08-19T07:34:07.526Z,1012.6
2016-08-19T07:34:33.171Z,1012.62
2016-08-19T07:34:58.758Z,1012.58
2016-08-19T07:35:24.611Z,1012.57
2016-08-19T07:35:50.194Z,1012.58
2016-08-19T07:36:15.764Z,1012.61
2016-08-19T07:36:41.325Z,1012.59
2016-08-19T07:37:06.884Z,1012.59
2016-08-19T07:37:32.457Z,1012.58
2016-08-19T07:37:58.023Z,1012.59
2016-08-19T07:38:23.584Z,1012.58
2016-08-19T07:38:49.143Z,1012.63
2016-08-19T07:39:14.705Z,1012.56
2016-08-19T07:39:40.288Z,1012.56
2016-08-19T07:40:05.926Z,1012.56
2016-08-19T07:40:31.489Z,1012.55
2016-08-19T07:40:57.047Z,1012.54
2016-08-19T07:41:22.587Z,1012.54
2016-08-19T07:41:48.168Z,1012.56
2016-08-19T07:42:13.711Z,1012.54
2016-08-19T07:42:39.274Z,1012.58
2016-08-19T07:43:04.857Z,1012.54
2016-08-19T07:43:30.425Z,1012.53
2016-08-19T07:43:55.980Z,1012.55
2016-08-19T07:44:21.696Z,1012.56
2016-08-19T07:44:47.259Z,1012.53
2016-08-19T07:45:12.834Z,1012.57
2016-08-19T07:45:38.521Z,1012.51
2016-08-19T07:46:04.176Z,1012.55
2016-08-19T07:46:29.751Z,1012.51
2016-08-19T07:46:55.321Z,1012.54
2016-08-19T07:47:20.892Z,1012.53
2016-08-19T07:47:46.482Z,1012.55
2016-08-19T07:48:12.041Z,1012.57
2016-08-19T07:48:37.601Z,1012.54
2016-08-19T07:49:03.190Z,1012.54
2016-08-19T07:49:28.745Z,1012.54
2016-08-19T07:49:54.317Z,1012.56
2016-08-19T07:50:19.890Z,1012.54
2016-08-19T07:50:45.453Z,1012.55
2016-08-19T07:51:11.019Z,1012.58
2016-08-19T07:51:36.642Z,1012.56
2016-08-19T07:52:02.283Z,1012.59
2016-08-19T07:52:27.849Z,1012.58
2016-08-19T07:53:25.899Z,1012.59
2016-08-19T07:53:51.469Z,1012.58
2016-08-19T07:54:17.119Z,1012.6
2016-08-19T07:54:42.687Z,1012.62
2016-08-19T07:55:08.257Z,1012.62
2016-08-19T07:55:33.839Z,1012.6
2016-08-19T07:55:59.419Z,1012.56
2016-08-19T07:56:24.998Z,1012.61
2016-08-19T07:56:50.594Z,1012.61
2016-08-19T07:57:16.195Z,1012.61
2016-08-19T07:57:41.835Z,1012.57
2016-08-19T07:58:07.407Z,1012.56
2016-08-19T07:58:32.966Z,1012.59
2016-08-19T07:58:58.544Z,1012.58
2016-08-19T07:59:24.085Z,1012.58
2016-08-19T07:59:49.677Z,1012.6
2016-08-19T08:00:15.227Z,1012.6
2016-08-19T08:00:40.806Z,1012.63
2016-08-19T08:01:06.380Z,1012.62
2016-08-19T08:01:32.062Z,1012.62
2016-08-19T08:01:57.626Z,1012.62
2016-08-19T08:02:23.199Z,1012.61
2016-08-19T08:02:48.846Z,1012.65
2016-08-19T08:03:14.425Z,1012.65
2016-08-19T08:03:40.173Z,1012.61
2016-08-19T08:04:05.758Z,1012.59
2016-08-19T08:04:31.312Z,1012.64
2016-08-19T08:04:56.909Z,1012.6
2016-08-19T08:05:22.549Z,1012.58
2016-08-19T08:05:48.152Z,1012.57
2016-08-19T08:06:13.711Z,1012.59
2016-08-19T08:06:39.368Z,1012.57
2016-08-19T08:07:04.935Z,1012.6
2016-08-19T08:07:30.478Z,1012.57
2016-08-19T08:07:56.033Z,1012.57
2016-08-19T08:08:21.601Z,1012.57
2016-08-19T08:08:47.178Z,1012.6
2016-08-19T08:09:12.759Z,1012.6
2016-08-19T08:09:38.323Z,1012.59
2016-08-19T08:10:03.891Z,1012.61
2016-08-19T08:10:29.558Z,1012.61
2016-08-19T08:10:55.134Z,1012.58
2016-08-19T08:11:20.709Z,1012.59
2016-08-19T08:11:46.300Z,1012.63
2016-08-19T08:12:11.880Z,1012.59
2016-08-19T08:12:37.468Z,1012.56
2016-08-19T08:13:03.032Z,1012.58
2016-08-19T08:13:28.607Z,1012.58
2016-08-19T08:13:54.174Z,1012.57
2016-08-19T08:14:19.831Z,1012.62
2016-08-19T08:14:45.575Z,1012.59
2016-08-19T08:15:11.134Z,1012.59
2016-08-19T08:15:36.706Z,1012.6
2016-08-19T08:16:02.297Z,1012.59
2016-08-19T08:16:27.897Z,1012.58
2016-08-19T08:17:25.959Z,1012.61
2016-08-19T08:17:51.530Z,1012.59
2016-08-19T08:18:17.108Z,1012.61
2016-08-19T08:18:42.690Z,1012.58
2016-08-19T08:19:08.267Z,1012.6
2016-08-19T08:19:33.838Z,1012.55
2016-08-19T08:19:59.410Z,1012.58
2016-08-19T08:20:25.002Z,1012.57
2016-08-19T08:20:50.638Z,1012.59
2016-08-19T08:21:16.198Z,1012.59
2016-08-19T08:21:41.765Z,1012.6
2016-08-19T08:22:07.370Z,1012.57
2016-08-19T08:22:32.927Z,1012.59
2016-08-19T08:22:58.487Z,1012.6